Time;durP1;ratioP1;P1;durP2;ratioP2;P2;SDS_P1;SDS_P2;PMS_P1;PMS_P2;Temp;Humidity;BMP_temperature;BMP_pressure;BME280_temperature;BME280_humidity;BME280_pressure;Samples;Min_cycle;Max_cycle;Signal;HPM_P1;HPM_P2
2022/01/05 00:01:24;;;;;;;12.87;2.33;;;3.40;99.90;;;;;;5055955;28;20041;-77
2022/01/05 00:03:50;;;;;;;13.87;2.20;;;3.40;99.90;;;;;;5055629;28;20072;-77
2022/01/05 00:06:16;;;;;;;15.10;3.17;;;3.40;99.90;;;;;;5055764;28;20503;-77
2022/01/05 00:08:42;;;;;;;16.30;2.40;;;3.40;99.90;;;;;;5055601;28;20052;-77
2022/01/05 00:11:07;;;;;;;15.47;2.40;;;3.40;99.90;;;;;;5054844;28;20429;-77
2022/01/05 00:13:33;;;;;;;12.60;2.30;;;3.40;99.90;;;;;;5055694;28;20056;-77
2022/01/05 00:15:59;;;;;;;17.67;3.10;;;3.40;99.90;;;;;;5055302;28;20049;-77
2022/01/05 00:18:25;;;;;;;13.87;2.60;;;3.40;99.90;;;;;;5054579;28;20283;-76
2022/01/05 00:20:51;;;;;;;10.20;2.20;;;3.40;99.90;;;;;;5054090;28;20045;-77
2022/01/05 00:23:17;;;;;;;20.65;3.65;;;3.40;99.90;;;;;;5055817;28;20056;-76
2022/01/05 00:25:42;;;;;;;20.70;3.60;;;3.40;99.90;;;;;;5054049;28;20045;-77
2022/01/05 00:28:08;;;;;;;16.37;2.50;;;3.40;99.90;;;;;;5055180;28;20394;-76
2022/01/05 00:30:34;;;;;;;19.40;2.97;;;3.40;99.90;;;;;;5055470;28;20051;-76
2022/01/05 00:33:00;;;;;;;13.93;2.77;;;3.40;99.90;;;;;;5054081;28;20481;-77
2022/01/05 00:35:25;;;;;;;16.27;3.33;;;3.50;99.90;;;;;;5055104;28;20053;-76
2022/01/05 00:37:51;;;;;;;19.80;3.40;;;3.50;99.90;;;;;;5054978;28;20037;-76
2022/01/05 00:40:17;;;;;;;13.47;2.83;;;3.50;99.90;;;;;;5054223;28;20049;-77
2022/01/05 00:42:42;;;;;;;16.67;3.00;;;3.60;99.90;;;;;;5053063;28;20388;-76
2022/01/05 00:45:08;;;;;;;14.27;2.93;;;3.60;99.90;;;;;;5053374;28;20059;-77
2022/01/05 00:47:34;;;;;;;14.70;2.70;;;3.60;99.90;;;;;;5055038;28;20045;-77
2022/01/05 00:50:00;;;;;;;16.57;3.30;;;3.60;99.90;;;;;;5054795;28;20041;-77
2022/01/05 00:52:26;;;;;;;12.30;2.50;;;3.60;99.90;;;;;;5054988;28;20480;-76
2022/01/05 00:54:52;;;;;;;23.40;3.87;;;3.60;99.90;;;;;;5054703;28;20075;-77
2022/01/05 00:57:17;;;;;;;17.27;3.08;;;3.60;99.90;;;;;;5055207;28;20051;-77
2022/01/05 00:59:43;;;;;;;13.50;2.53;;;3.60;99.90;;;;;;5054806;28;20045;-76
2022/01/05 01:02:09;;;;;;;14.63;3.20;;;3.60;99.90;;;;;;5054536;28;20137;-77
2022/01/05 01:04:35;;;;;;;12.80;2.20;;;3.60;99.90;;;;;;5054848;28;20135;-77
2022/01/05 01:07:00;;;;;;;16.93;2.30;;;3.50;99.90;;;;;;5054393;28;20481;-77
2022/01/05 01:09:26;;;;;;;17.80;2.80;;;3.50;99.90;;;;;;5054593;28;20041;-77
2022/01/05 01:11:52;;;;;;;20.17;2.63;;;3.50;99.90;;;;;;5054402;28;20221;-76
2022/01/05 01:14:17;;;;;;;15.00;2.57;;;3.50;99.90;;;;;;5053404;28;20049;-76
2022/01/05 01:16:43;;;;;;;18.27;2.40;;;3.10;99.90;;;;;;5054677;28;20052;-76
2022/01/05 01:19:09;;;;;;;15.80;2.27;;;3.70;99.90;;;;;;5054196;28;20090;-76
2022/01/05 01:21:35;;;;;;;19.23;3.15;;;3.50;99.90;;;;;;5054408;28;20159;-76
2022/01/05 01:24:01;;;;;;;14.37;2.90;;;3.40;99.90;;;;;;5052805;28;20477;-77
2022/01/05 01:26:29;;;;;;;14.37;2.50;;;3.50;99.90;;;;;;5054246;28;20047;-77
2022/01/05 01:28:57;;;;;;;15.45;2.67;;;3.40;99.90;;;;;;5054070;28;20045;-77
2022/01/05 01:31:22;;;;;;;18.48;3.05;;;3.40;99.90;;;;;;5054264;28;20053;-77
2022/01/05 01:33:48;;;;;;;17.43;2.60;;;3.40;99.90;;;;;;5054166;28;20063;-77
2022/01/05 01:36:14;;;;;;;19.27;2.70;;;3.50;99.90;;;;;;5053840;28;20048;-77
2022/01/05 01:38:41;;;;;;;20.80;3.20;;;3.40;99.90;;;;;;5054074;28;20045;-77
2022/01/05 01:41:08;;;;;;;19.02;2.90;;;3.40;99.90;;;;;;5053739;28;20056;-77
2022/01/05 01:43:33;;;;;;;20.92;2.83;;;3.40;99.90;;;;;;5053054;28;20078;-77
2022/01/05 01:46:00;;;;;;;18.97;2.80;;;3.50;99.90;;;;;;5053591;28;20052;-77
2022/01/05 01:48:26;;;;;;;17.83;3.55;;;3.50;99.90;;;;;;5053902;28;20041;-77
2022/01/05 01:50:52;;;;;;;19.52;3.25;;;3.50;99.90;;;;;;5052759;28;20041;-77
2022/01/05 01:53:18;;;;;;;20.47;3.37;;;3.50;99.90;;;;;;5054009;28;20051;-77
2022/01/05 01:55:44;;;;;;;15.70;3.27;;;3.50;99.90;;;;;;5053400;28;20045;-77
2022/01/05 01:58:10;;;;;;;17.45;2.90;;;3.50;99.90;;;;;;5053477;28;20099;-77
2022/01/05 02:00:36;;;;;;;15.23;3.03;;;3.50;99.90;;;;;;5053907;28;20045;-77
2022/01/05 02:03:02;;;;;;;23.45;3.28;;;3.60;99.90;;;;;;5052338;28;20671;-77
2022/01/05 02:05:28;;;;;;;23.90;3.57;;;3.50;99.90;;;;;;5053597;28;20174;-77
2022/01/05 02:07:53;;;;;;;21.10;3.20;;;3.60;99.90;;;;;;5053640;28;20048;-77
2022/01/05 02:10:20;;;;;;;18.07;2.80;;;3.70;99.90;;;;;;5053345;28;20465;-77
2022/01/05 02:12:47;;;;;;;18.05;3.55;;;3.70;99.90;;;;;;5053228;28;20558;-77
2022/01/05 02:15:13;;;;;;;24.63;3.25;;;3.80;99.90;;;;;;5052812;28;20528;-77
2022/01/05 02:17:56;;;;;;;17.40;3.07;;;3.70;99.90;;;;;;5052214;28;20049;-77
2022/01/05 02:20:26;;;;;;;16.58;2.92;;;3.70;99.90;;;;;;5053656;28;20186;-77
2022/01/05 02:22:53;;;;;;;22.05;3.25;;;3.70;99.90;;;;;;5035819;28;20055;-77
2022/01/05 02:25:19;;;;;;;17.90;3.17;;;3.80;99.90;;;;;;5052846;28;20134;-77
2022/01/05 02:27:46;;;;;;;17.77;3.35;;;3.70;99.90;;;;;;5052066;28;20045;-77
2022/01/05 02:30:19;;;;;;;23.48;3.88;;;3.80;99.90;;;;;;5051897;28;20095;-77
2022/01/05 02:32:44;;;;;;;19.05;3.03;;;3.80;99.90;;;;;;5053283;28;20127;-77
2022/01/05 02:35:11;;;;;;;21.93;2.80;;;3.90;99.90;;;;;;5051673;28;20045;-77
2022/01/05 02:37:45;;;;;;;17.85;3.33;;;3.80;99.90;;;;;;5035456;28;20049;-77
2022/01/05 02:40:13;;;;;;;20.52;3.72;;;3.90;99.90;;;;;;5052745;28;20148;-77
2022/01/05 02:42:40;;;;;;;17.83;3.47;;;3.80;99.90;;;;;;5052733;28;20519;-77
2022/01/05 02:45:07;;;;;;;18.58;3.25;;;3.90;99.90;;;;;;5052687;28;20092;-77
2022/01/05 02:47:33;;;;;;;16.73;3.13;;;3.90;99.90;;;;;;5052806;28;20066;-77
2022/01/05 02:50:00;;;;;;;18.30;3.03;;;3.90;99.90;;;;;;5051924;28;20485;-77
2022/01/05 02:52:26;;;;;;;24.73;3.92;;;3.90;99.90;;;;;;5052810;28;20481;-77
2022/01/05 02:54:52;;;;;;;21.33;2.97;;;4.00;99.90;;;;;;5052959;28;20087;-77
2022/01/05 02:57:18;;;;;;;23.70;4.00;;;4.00;99.90;;;;;;5052514;28;20047;-77
2022/01/05 02:59:43;;;;;;;14.83;2.70;;;4.10;99.90;;;;;;5052858;28;20275;-77
2022/01/05 03:02:09;;;;;;;18.30;3.33;;;4.10;99.90;;;;;;5052634;28;20555;-77
2022/01/05 03:04:35;;;;;;;22.63;4.67;;;4.10;99.90;;;;;;5052764;28;20045;-77
2022/01/05 03:07:01;;;;;;;20.23;3.57;;;4.20;99.90;;;;;;5053549;28;20106;-77
2022/01/05 03:09:27;;;;;;;19.27;3.60;;;4.10;99.90;;;;;;5055617;28;20314;-76
2022/01/05 03:11:53;;;;;;;22.77;3.27;;;4.20;99.90;;;;;;5056890;28;20114;-76
2022/01/05 03:14:20;;;;;;;24.20;3.60;;;4.20;99.90;;;;;;5056203;28;20489;-77
2022/01/05 03:16:46;;;;;;;23.88;3.80;;;4.20;99.90;;;;;;5056931;28;20110;-76
2022/01/05 03:19:11;;;;;;;17.07;3.00;;;4.20;99.90;;;;;;5056461;28;20135;-77
2022/01/05 03:21:37;;;;;;;19.33;4.13;;;4.20;99.90;;;;;;5055837;28;20137;-76
2022/01/05 03:24:03;;;;;;;11.47;2.50;;;4.20;99.90;;;;;;5056352;28;20041;-76
2022/01/05 03:26:29;;;;;;;15.68;2.88;;;4.20;99.90;;;;;;5056181;28;20512;-77
2022/01/05 03:28:55;;;;;;;15.13;2.67;;;4.20;99.90;;;;;;5056631;28;20089;-77
2022/01/05 03:31:20;;;;;;;19.73;3.10;;;4.30;99.90;;;;;;5055181;28;20053;-77
2022/01/05 03:33:46;;;;;;;15.60;2.67;;;4.30;99.90;;;;;;5055529;28;20052;-77
2022/01/05 03:36:12;;;;;;;20.17;3.93;;;4.40;99.90;;;;;;5056198;28;20497;-77
2022/01/05 03:38:38;;;;;;;12.93;3.07;;;4.40;99.90;;;;;;5056989;28;20048;-76
2022/01/05 03:41:03;;;;;;;16.77;2.93;;;4.40;99.90;;;;;;5056339;28;20049;-77
2022/01/05 03:43:29;;;;;;;7.03;1.97;;;4.40;99.90;;;;;;5056015;28;20044;-77
2022/01/05 03:45:55;;;;;;;11.40;2.10;;;4.30;99.90;;;;;;5056122;28;20124;-77
2022/01/05 03:48:22;;;;;;;12.07;1.70;;;4.30;99.90;;;;;;5056203;28;20052;-77
2022/01/05 03:50:48;;;;;;;13.60;2.22;;;4.20;99.90;;;;;;5056189;28;20084;-76
2022/01/05 03:53:14;;;;;;;10.73;2.00;;;4.20;99.90;;;;;;5055883;28;20049;-77
2022/01/05 03:55:43;;;;;;;12.70;2.25;;;4.20;99.90;;;;;;5056088;28;20366;-77
2022/01/05 03:58:10;;;;;;;14.73;2.42;;;4.10;99.90;;;;;;5055827;28;20049;-77
2022/01/05 04:00:40;;;;;;;12.70;2.15;;;4.20;99.90;;;;;;5055920;28;20048;-77
2022/01/05 04:03:06;;;;;;;10.43;2.08;;;4.10;99.90;;;;;;5054728;28;20049;-77
2022/01/05 04:05:31;;;;;;;11.10;2.80;;;4.20;99.90;;;;;;5055595;28;20045;-77
2022/01/05 04:07:57;;;;;;;11.53;2.13;;;4.20;99.90;;;;;;5055536;28;20059;-76
2022/01/05 04:10:23;;;;;;;14.03;1.97;;;4.20;99.90;;;;;;5054307;28;20045;-77
2022/01/05 04:12:49;;;;;;;11.25;1.70;;;4.20;99.90;;;;;;5055852;28;20143;-76
2022/01/05 04:15:16;;;;;;;13.37;2.20;;;4.20;99.90;;;;;;5055410;28;20060;-76
2022/01/05 04:17:42;;;;;;;13.05;2.40;;;4.20;99.90;;;;;;5055477;28;20060;-76
2022/01/05 04:20:08;;;;;;;12.60;2.47;;;4.10;99.90;;;;;;5054446;28;20053;-76
2022/01/05 04:22:34;;;;;;;17.63;3.42;;;4.10;99.90;;;;;;5054328;28;20288;-76
2022/01/05 04:25:00;;;;;;;12.87;2.20;;;4.10;99.90;;;;;;5055564;28;20177;-76
2022/01/05 04:27:26;;;;;;;12.97;2.53;;;4.00;99.90;;;;;;5055155;28;20041;-76
2022/01/05 04:29:51;;;;;;;15.57;2.50;;;4.10;99.90;;;;;;5055464;28;20370;-76
2022/01/05 04:32:17;;;;;;;16.50;2.67;;;4.10;99.90;;;;;;5055126;28;20049;-76
2022/01/05 04:34:43;;;;;;;18.30;3.20;;;4.10;99.90;;;;;;5037824;28;20388;-76
2022/01/05 04:37:09;;;;;;;15.90;3.20;;;4.10;99.90;;;;;;5055455;28;20055;-76
2022/01/05 04:39:35;;;;;;;17.97;2.50;;;4.10;99.90;;;;;;5054993;28;20440;-76
2022/01/05 04:42:01;;;;;;;19.38;3.20;;;4.10;99.90;;;;;;5054208;28;20049;-76
2022/01/05 04:44:27;;;;;;;18.97;4.03;;;4.10;99.90;;;;;;5054829;28;20095;-76
2022/01/05 04:46:53;;;;;;;15.73;2.73;;;4.10;99.90;;;;;;5055115;28;20053;-76
2022/01/05 04:49:18;;;;;;;24.13;4.93;;;4.10;99.90;;;;;;5054767;28;20049;-76
2022/01/05 04:51:44;;;;;;;19.27;3.10;;;4.10;99.90;;;;;;5055046;28;20534;-76
2022/01/05 04:54:10;;;;;;;19.93;4.10;;;4.20;99.90;;;;;;5053993;28;20087;-76
2022/01/05 04:56:35;;;;;;;16.47;2.80;;;4.10;99.90;;;;;;5054665;28;20087;-76
2022/01/05 04:59:01;;;;;;;15.60;3.27;;;4.10;99.90;;;;;;5054987;28;20099;-76
2022/01/05 05:01:27;;;;;;;21.50;2.87;;;4.20;99.90;;;;;;5053382;28;20045;-76
2022/01/05 05:03:53;;;;;;;18.80;3.33;;;4.20;99.90;;;;;;5054791;28;20080;-75
2022/01/05 05:06:19;;;;;;;21.50;3.00;;;4.20;99.90;;;;;;5054498;28;20072;-75
2022/01/05 05:08:44;;;;;;;18.30;3.03;;;4.30;99.90;;;;;;5054683;28;20286;-75
2022/01/05 05:11:10;;;;;;;23.93;3.30;;;4.30;99.90;;;;;;5053727;28;20090;-75
2022/01/05 05:13:36;;;;;;;16.23;3.23;;;4.40;99.90;;;;;;5054331;28;20380;-75
2022/01/05 05:16:02;;;;;;;21.77;4.10;;;4.40;99.90;;;;;;5052957;28;20056;-75
2022/01/05 05:18:27;;;;;;;20.20;3.10;;;4.40;99.90;;;;;;5054278;28;20063;-75
2022/01/05 05:20:53;;;;;;;19.60;2.77;;;4.40;99.90;;;;;;5054695;28;20285;-75
2022/01/05 05:23:19;;;;;;;18.63;3.33;;;4.50;99.90;;;;;;5054160;28;20049;-75
2022/01/05 05:25:45;;;;;;;21.23;4.20;;;4.50;99.90;;;;;;5053329;28;20037;-75
2022/01/05 05:28:10;;;;;;;24.83;4.03;;;4.50;99.90;;;;;;5053077;28;20048;-75
2022/01/05 05:30:36;;;;;;;22.73;3.30;;;4.50;99.90;;;;;;5052308;28;20052;-75
2022/01/05 05:33:03;;;;;;;21.80;4.83;;;4.50;99.90;;;;;;5053936;28;20045;-74
2022/01/05 05:35:30;;;;;;;23.55;3.83;;;4.60;99.90;;;;;;5053916;28;20115;-74
2022/01/05 05:37:56;;;;;;;23.95;3.88;;;4.60;99.90;;;;;;5054147;28;20538;-74
2022/01/05 05:40:23;;;;;;;28.58;4.95;;;4.70;99.90;;;;;;5053839;28;20084;-75
2022/01/05 05:42:49;;;;;;;18.58;3.40;;;4.70;99.90;;;;;;5054089;28;20131;-75
2022/01/05 05:45:16;;;;;;;19.83;3.38;;;4.70;99.90;;;;;;5052851;28;20129;-75
2022/01/05 05:47:42;;;;;;;24.02;3.30;;;4.70;99.90;;;;;;5053614;28;20041;-74
2022/01/05 05:50:09;;;;;;;16.75;3.25;;;4.70;99.90;;;;;;5054228;28;20080;-74
2022/01/05 05:52:35;;;;;;;15.25;2.90;;;4.70;99.90;;;;;;5053625;28;20049;-74
2022/01/05 05:55:01;;;;;;;17.07;3.17;;;4.70;99.90;;;;;;5053920;28;20536;-74
2022/01/05 05:57:27;;;;;;;21.00;4.70;;;4.70;99.90;;;;;;5053493;28;20508;-74
2022/01/05 05:59:52;;;;;;;24.33;3.63;;;4.70;99.90;;;;;;5053783;28;20053;-74
2022/01/05 06:02:18;;;;;;;22.27;3.60;;;4.70;99.90;;;;;;5052745;28;20084;-75
2022/01/05 06:04:44;;;;;;;28.03;4.40;;;4.70;99.90;;;;;;5053149;28;20045;-75
2022/01/05 06:07:09;;;;;;;17.53;2.93;;;4.80;99.90;;;;;;5052560;28;20045;-75
2022/01/05 06:09:35;;;;;;;21.17;3.30;;;4.70;99.90;;;;;;5053327;28;20041;-75
2022/01/05 06:12:01;;;;;;;21.47;3.43;;;4.80;99.90;;;;;;5052611;28;20128;-75
2022/01/05 06:14:26;;;;;;;17.97;2.80;;;4.80;99.90;;;;;;5052938;28;20045;-74
2022/01/05 06:16:52;;;;;;;16.87;2.90;;;4.80;99.90;;;;;;5053191;28;20140;-74
2022/01/05 06:19:18;;;;;;;18.33;2.80;;;4.80;99.90;;;;;;5053562;28;20053;-74
2022/01/05 06:21:44;;;;;;;18.23;3.07;;;4.80;99.90;;;;;;5052200;28;20049;-74
2022/01/05 06:24:11;;;;;;;15.15;3.50;;;4.90;99.90;;;;;;5052176;28;20499;-74
2022/01/05 06:26:37;;;;;;;19.75;2.88;;;4.90;99.90;;;;;;5051915;28;20052;-75
2022/01/05 06:29:03;;;;;;;12.40;2.13;;;4.90;99.90;;;;;;5053362;28;20045;-75
2022/01/05 06:31:29;;;;;;;12.68;2.33;;;4.90;99.90;;;;;;5052956;28;20045;-75
2022/01/05 06:33:55;;;;;;;11.77;1.63;;;4.90;99.90;;;;;;5053247;28;20051;-75
2022/01/05 06:36:21;;;;;;;10.63;1.33;;;4.80;99.90;;;;;;5053231;28;20167;-75
2022/01/05 06:38:47;;;;;;;6.87;1.43;;;4.80;99.90;;;;;;5052839;28;20495;-75
2022/01/05 06:41:12;;;;;;;10.03;1.40;;;4.70;99.90;;;;;;5053052;28;20059;-75
2022/01/05 06:43:38;;;;;;;10.77;1.77;;;4.70;99.90;;;;;;5051539;28;20044;-75
2022/01/05 06:46:04;;;;;;;11.83;2.60;;;4.60;99.90;;;;;;5052970;28;20033;-75
2022/01/05 06:48:29;;;;;;;12.97;1.97;;;4.60;99.90;;;;;;5052750;28;20534;-75
2022/01/05 06:50:55;;;;;;;11.40;2.10;;;4.60;99.90;;;;;;5052932;28;20405;-75
2022/01/05 06:53:21;;;;;;;15.90;2.27;;;4.60;99.90;;;;;;5053024;28;20044;-74
2022/01/05 06:55:47;;;;;;;18.50;2.40;;;4.60;99.90;;;;;;5052637;28;20045;-74
2022/01/05 06:58:12;;;;;;;15.47;2.83;;;4.70;99.90;;;;;;5052912;28;20127;-74
2022/01/05 07:00:38;;;;;;;21.67;2.87;;;4.70;99.90;;;;;;5052532;28;20044;-74
2022/01/05 07:03:05;;;;;;;19.30;3.00;;;4.70;99.90;;;;;;5052995;28;20155;-75
2022/01/05 07:05:31;;;;;;;27.48;2.70;;;4.80;99.90;;;;;;5051264;28;20052;-75
2022/01/05 07:07:57;;;;;;;21.20;3.00;;;4.80;99.90;;;;;;5051596;28;20056;-75
2022/01/05 07:10:22;;;;;;;20.38;3.78;;;4.80;99.90;;;;;;5052883;28;20445;-75
2022/01/05 07:12:48;;;;;;;12.73;2.07;;;4.80;99.90;;;;;;5051547;28;20134;-75
2022/01/05 07:15:15;;;;;;;22.60;3.10;;;4.90;99.90;;;;;;5052515;28;20417;-75
2022/01/05 07:17:40;;;;;;;19.45;2.75;;;4.90;99.90;;;;;;5052378;28;20041;-75
2022/01/05 07:20:08;;;;;;;17.87;2.57;;;5.00;99.90;;;;;;5052683;28;20052;-75
2022/01/05 07:22:34;;;;;;;13.88;2.05;;;5.00;99.90;;;;;;5051423;28;20507;-75
2022/01/05 07:25:00;;;;;;;14.40;2.35;;;5.00;99.90;;;;;;5052640;28;20053;-75
2022/01/05 07:27:26;;;;;;;13.87;2.30;;;5.10;99.90;;;;;;5051599;28;20041;-75
2022/01/05 07:29:51;;;;;;;12.95;2.53;;;5.20;99.90;;;;;;5052294;28;20048;-75
2022/01/05 07:32:17;;;;;;;12.30;2.13;;;5.20;99.90;;;;;;5052745;28;20094;-75
2022/01/05 07:34:43;;;;;;;23.63;3.70;;;5.20;99.90;;;;;;5034756;28;20079;-75
2022/01/05 07:37:12;;;;;;;22.13;3.77;;;5.20;99.90;;;;;;5052606;28;20071;-73
2022/01/05 07:39:39;;;;;;;15.00;3.00;;;5.20;99.90;;;;;;5051103;28;20099;-74
2022/01/05 07:42:05;;;;;;;21.75;3.28;;;5.20;99.90;;;;;;5052514;28;20063;-74
2022/01/05 07:44:31;;;;;;;19.80;3.35;;;5.20;99.90;;;;;;5052474;28;20045;-73
2022/01/05 07:46:56;;;;;;;11.73;2.47;;;5.20;99.90;;;;;;5052054;28;20047;-73
2022/01/05 07:49:22;;;;;;;16.57;2.23;;;5.30;99.90;;;;;;5052548;28;20059;-74
2022/01/05 07:51:48;;;;;;;13.37;2.27;;;5.40;99.90;;;;;;5052106;28;20465;-74
2022/01/05 07:54:13;;;;;;;12.97;2.17;;;5.40;99.90;;;;;;5056169;28;20049;-74
2022/01/05 07:56:39;;;;;;;12.03;2.47;;;5.30;99.90;;;;;;5055851;28;20090;-75
2022/01/05 07:59:05;;;;;;;13.37;2.10;;;5.30;99.90;;;;;;5055144;28;20051;-75
2022/01/05 08:01:31;;;;;;;15.83;2.60;;;5.30;99.90;;;;;;5055943;28;20210;-75
2022/01/05 08:03:56;;;;;;;17.73;2.50;;;5.30;99.90;;;;;;5055665;28;20045;-75
2022/01/05 08:06:22;;;;;;;16.97;3.10;;;5.40;99.90;;;;;;5055934;28;20565;-75
2022/01/05 08:08:49;;;;;;;16.07;2.50;;;5.40;99.90;;;;;;5055642;28;20084;-75
2022/01/05 08:11:16;;;;;;;14.60;2.78;;;5.50;99.90;;;;;;5056055;28;20048;-75
2022/01/05 08:13:42;;;;;;;22.70;2.67;;;5.50;99.90;;;;;;5054360;28;20049;-75
2022/01/05 08:16:08;;;;;;;20.67;3.03;;;5.50;99.90;;;;;;5055340;28;20057;-75
2022/01/05 08:18:33;;;;;;;18.95;2.70;;;5.60;99.90;;;;;;5055873;28;20057;-75
2022/01/05 08:20:59;;;;;;;12.07;2.80;;;5.60;99.90;;;;;;5055335;28;20109;-75
2022/01/05 08:23:26;;;;;;;14.57;1.83;;;5.60;99.90;;;;;;5055303;28;20136;-75
2022/01/05 08:25:52;;;;;;;13.63;1.83;;;5.60;99.90;;;;;;5055218;28;20047;-75
2022/01/05 08:28:19;;;;;;;11.05;1.67;;;5.70;99.90;;;;;;5055780;28;20393;-75
2022/01/05 08:30:46;;;;;;;9.02;1.67;;;5.60;99.90;;;;;;5055152;28;20041;-76
2022/01/05 08:33:15;;;;;;;10.10;1.98;;;5.60;99.90;;;;;;5055744;28;20053;-75
2022/01/05 08:35:41;;;;;;;11.98;1.60;;;5.60;99.90;;;;;;5055094;28;20095;-75
2022/01/05 08:38:07;;;;;;;10.13;1.27;;;5.50;99.90;;;;;;5055361;28;20045;-76
2022/01/05 08:40:34;;;;;;;15.65;2.35;;;5.50;99.90;;;;;;5055011;28;20493;-74
2022/01/05 08:43:02;;;;;;;18.42;3.20;;;5.50;99.90;;;;;;5054662;28;20488;-77
2022/01/05 08:45:28;;;;;;;19.55;2.13;;;5.50;99.90;;;;;;5055091;28;20048;-74
2022/01/05 08:47:55;;;;;;;15.63;2.20;;;5.60;99.90;;;;;;5053877;28;20049;-74
2022/01/05 08:50:24;;;;;;;20.58;2.70;;;5.60;99.90;;;;;;5053662;28;20374;-74
2022/01/05 08:52:52;;;;;;;16.08;2.58;;;5.60;99.90;;;;;;5054826;28;20123;-74
2022/01/05 08:55:20;;;;;;;18.73;3.13;;;5.70;99.90;;;;;;5055113;28;20052;-74
2022/01/05 08:57:46;;;;;;;16.85;2.72;;;5.70;99.90;;;;;;5054488;28;20493;-74
2022/01/05 09:00:12;;;;;;;21.67;2.53;;;5.80;99.90;;;;;;5054877;28;20051;-75
2022/01/05 09:02:38;;;;;;;16.95;2.78;;;5.80;99.90;;;;;;5054718;28;20041;-75
2022/01/05 09:05:05;;;;;;;22.52;4.30;;;5.90;99.90;;;;;;5053463;28;20060;-74
2022/01/05 09:07:31;;;;;;;22.77;3.22;;;5.90;99.90;;;;;;5054837;28;20037;-75
2022/01/05 09:09:56;;;;;;;20.40;3.30;;;5.90;99.90;;;;;;5054452;28;20098;-72
2022/01/05 09:12:22;;;;;;;25.93;3.97;;;5.90;99.90;;;;;;5053530;28;20053;-72
2022/01/05 09:14:48;;;;;;;23.53;4.17;;;5.90;99.90;;;;;;5053205;28;20136;-74
2022/01/05 09:17:14;;;;;;;31.10;4.80;;;6.00;99.90;;;;;;5053422;28;20088;-73
2022/01/05 09:19:39;;;;;;;33.07;4.63;;;6.00;99.90;;;;;;5054730;28;20477;-72
2022/01/05 09:22:05;;;;;;;34.27;5.70;;;6.00;99.90;;;;;;5054383;28;20045;-73
2022/01/05 09:24:32;;;;;;;36.83;5.27;;;6.00;99.90;;;;;;5054564;28;20464;-73
2022/01/05 09:27:02;;;;;;;30.00;4.95;;;6.00;99.90;;;;;;5054077;28;20300;-74
2022/01/05 09:29:30;;;;;;;30.48;4.97;;;6.00;99.90;;;;;;5054633;28;20045;-74
2022/01/05 09:31:57;;;;;;;28.80;6.13;;;6.10;99.90;;;;;;5053962;28;20634;-74
2022/01/05 09:34:23;;;;;;;24.92;5.35;;;6.20;99.90;;;;;;5054366;28;20480;-74
2022/01/05 09:36:57;;;;;;;25.20;4.37;;;;;;;;;;5052844;28;20084;-75
2022/01/05 09:42:07;;;;;;;39.63;5.35;;;;;;;;;;5053928;28;20052;-74
2022/01/05 09:44:38;;;;;;;31.42;5.28;;;;;;;;;;5054093;28;20049;-74
2022/01/05 09:47:17;;;;;;;23.98;3.78;;;;;;;;;;5053776;28;20056;-75
2022/01/05 09:50:01;;;;;;;30.45;4.20;;;;;;;;;;5054032;28;20045;-74
2022/01/05 09:52:27;;;;;;;28.23;3.72;;;;;;;;;;5054148;28;20397;-75
2022/01/05 09:54:53;;;;;;;27.25;3.95;;;;;;;;;;5053842;28;20140;-75
2022/01/05 09:57:21;;;;;;;34.58;6.05;;;;;;;;;;5054057;28;20048;-75
2022/01/05 09:59:48;;;;;;;25.20;4.10;;;;;;;;;;5054270;28;20595;-75
2022/01/05 10:02:16;;;;;;;27.20;3.75;;;;;;;;;;5053918;28;20083;-74
2022/01/05 10:04:42;;;;;;;23.60;3.55;;;;;;;;;;5052862;28;20049;-75
2022/01/05 10:07:09;;;;;;;24.92;4.32;;;;;;;;;;5053456;28;20045;-75
2022/01/05 10:09:38;;;;;;;18.90;3.75;;;6.60;99.90;;;;;;5053777;28;20056;-75
2022/01/05 10:12:05;;;;;;;15.63;2.70;;;6.60;99.90;;;;;;5053510;28;20489;-75
2022/01/05 10:14:31;;;;;;;21.50;2.78;;;6.60;99.90;;;;;;5053581;28;20567;-75
2022/01/05 10:17:05;;;;;;;21.88;4.13;;;6.60;99.90;;;;;;5053175;28;20050;-76
2022/01/05 10:19:32;;;;;;;22.15;3.83;;;;;;;;;;5053507;28;20515;-75
2022/01/05 10:21:58;;;;;;;22.23;3.00;;;;;;;;;;5053275;28;20041;-76
2022/01/05 10:24:42;;;;;;;30.17;4.75;;;;;;;;;;5053504;28;20374;-75
2022/01/05 10:27:09;;;;;;;21.55;3.30;;;;;;;;;;5052913;28;20405;-76
2022/01/05 10:29:35;;;;;;;22.65;3.88;;;;;;;;;;5052114;28;20110;-75
2022/01/05 10:32:01;;;;;;;32.13;5.03;;;;;;;;;;5052901;28;20503;-75
2022/01/05 10:34:29;;;;;;;28.73;5.28;;;;;;;;;;5053233;28;20124;-76
2022/01/05 10:37:00;;;;;;;22.23;3.75;;;;;;;;;;5052955;28;20171;-80
2022/01/05 10:39:39;;;;;;;17.92;3.85;;;;;;;;;;5052138;28;20545;-86
2022/01/05 10:42:06;;;;;;;28.15;4.05;;;;;;;;;;5052879;28;20053;-85
2022/01/05 10:44:32;;;;;;;22.37;3.77;;;;;;;;;;5052073;28;20049;-80
2022/01/05 10:46:59;;;;;;;20.33;3.72;;;;;;;;;;5052632;28;20302;-76
2022/01/05 10:49:36;;;;;;;17.73;2.95;;;;;;;;;;5053173;28;20393;-87
2022/01/05 10:52:21;;;;;;;17.55;3.10;;;;;;;;;;5052763;28;20056;-82
2022/01/05 10:54:47;;;;;;;14.02;2.55;;;;;;;;;;5051725;28;20072;-80
2022/01/05 10:57:14;;;;;;;16.65;2.58;;;;;;;;;;5052584;28;20045;-81
2022/01/05 10:59:44;;;;;;;10.23;1.90;;;;;;;;;;5052890;28;20079;-79
2022/01/05 11:02:36;;;;;;;16.23;3.13;;;;;;;;;;5052597;28;20135;-77
2022/01/05 11:05:02;;;;;;;17.98;2.70;;;;;;;;;;5049650;28;20440;-80
2022/01/05 11:07:31;;;;;;;19.73;3.38;;;;;;;;;;5052672;28;20037;-79
2022/01/05 11:10:02;;;;;;;18.88;3.03;;;;;;;;;;5052647;28;20124;-80
2022/01/05 11:12:37;;;;;;;17.20;2.78;;;;;;;;;;5053042;28;20041;-79
2022/01/05 11:15:21;;;;;;;19.83;3.33;;;;;;;;;;5052536;28;20063;-79
2022/01/05 11:18:08;;;;;;;24.45;3.80;;;;;;;;;;5051308;28;20041;-80
2022/01/05 11:20:35;;;;;;;20.15;4.45;;;;;;;;;;5051400;28;20045;-82
2022/01/05 11:23:01;;;;;;;21.38;3.28;;;;;;;;;;5052388;28;20056;-85
2022/01/05 11:25:27;;;;;;;25.27;4.60;;;;;;;;;;5051701;28;20045;-83
2022/01/05 11:27:53;;;;;;;16.93;2.60;;;;;;;;;;5053936;28;20794;-82
2022/01/05 11:30:20;;;;;;;13.90;2.20;;;;;;;;;;5055410;28;20302;-81
2022/01/05 11:32:46;;;;;;;12.57;2.03;;;;;;;;;;5039032;28;20088;-81
2022/01/05 11:35:12;;;;;;;9.98;1.75;;;;;;;;;;5056193;28;20287;-81
2022/01/05 11:37:38;;;;;;;8.13;1.60;;;;;;;;;;5055606;28;20060;-81
2022/01/05 11:40:05;;;;;;;10.35;2.05;;;;;;;;;;5056087;28;20330;-82
2022/01/05 11:42:38;;;;;;;10.20;1.60;;;;;;;;;;5056417;28;20049;-82
2022/01/05 11:45:06;;;;;;;15.35;2.22;;;;;;;;;;5056014;28;20076;-74
2022/01/05 11:47:35;;;;;;;16.23;2.43;;;;;;;;;;5055047;28;20432;-76
2022/01/05 11:50:13;;;;;;;20.83;2.92;;;;;;;;;;5054751;28;20292;-80
2022/01/05 11:53:08;;;;;;;13.60;2.63;;;;;;;;;;5056343;28;20044;-73
2022/01/05 11:55:53;;;;;;;17.75;3.05;;;;;;;;;;5054366;28;20115;-75
2022/01/05 11:58:25;;;;;;;12.63;2.67;;;;;;;;;;5055766;28;20052;-74
2022/01/05 12:01:10;;;;;;;18.02;3.13;;;;;;;;;;5056130;28;20166;-73
2022/01/05 12:03:56;;;;;;;19.98;2.80;;;;;;;;;;5055964;28;20085;-73
2022/01/05 12:06:23;;;;;;;23.58;2.88;;;;;;;;;;5055922;28;20830;-74
2022/01/05 12:08:50;;;;;;;17.20;2.85;;;;;;;;;;5056097;28;20045;-74
2022/01/05 12:11:38;;;;;;;26.97;3.90;;;;;;;;;;5055483;28;20500;-74
2022/01/05 12:14:28;;;;;;;22.88;3.30;;;7.20;99.90;;;;;;5054574;28;20771;-76
2022/01/05 12:16:59;;;;;;;24.02;3.53;;;7.20;99.90;;;;;;5055720;28;20088;-74
2022/01/05 12:19:54;;;;;;;22.77;4.15;;;7.30;99.90;;;;;;5055438;28;20506;-73
2022/01/05 12:22:24;;;;;;;20.30;3.58;;;7.30;99.90;;;;;;5055444;28;20049;-73
2022/01/05 12:24:52;;;;;;;17.70;2.65;;;7.20;99.90;;;;;;5055620;28;20041;-73
2022/01/05 12:27:32;;;;;;;17.97;2.70;;;7.10;99.90;;;;;;5054951;28;20052;-76
2022/01/05 12:29:59;;;;;;;20.10;3.92;;;7.10;99.90;;;;;;5055682;28;20295;-72
2022/01/05 12:32:40;;;;;;;19.55;3.55;;;7.00;99.90;;;;;;5055174;28;20045;-74
2022/01/05 12:35:08;;;;;;;17.13;2.87;;;6.90;99.90;;;;;;5054119;28;20179;-77
2022/01/05 12:37:51;;;;;;;19.58;3.63;;;6.90;99.90;;;;;;5054219;28;20326;-72
2022/01/05 12:40:36;;;;;;;16.03;2.50;;;6.80;99.90;;;;;;5054017;28;20049;-73
2022/01/05 12:43:08;;;;;;;17.60;2.65;;;6.80;99.90;;;;;;5055535;28;20664;-73
2022/01/05 12:45:48;;;;;;;17.95;3.35;;;6.80;99.90;;;;;;5055518;28;20045;-73
2022/01/05 12:48:32;;;;;;;20.90;2.67;;;6.80;99.90;;;;;;5054920;28;20090;-73
2022/01/05 12:51:20;;;;;;;25.63;3.40;;;6.90;99.90;;;;;;5054990;28;20287;-73
2022/01/05 12:54:01;;;;;;;25.63;4.50;;;7.00;99.90;;;;;;5055021;28;20057;-73
2022/01/05 12:56:27;;;;;;;23.20;4.70;;;7.10;99.90;;;;;;5054648;28;20295;-73
2022/01/05 12:58:54;;;;;;;19.80;3.37;;;7.00;99.90;;;;;;5055132;28;20636;-73
2022/01/05 13:01:21;;;;;;;22.10;3.43;;;7.10;99.90;;;;;;5054980;28;20049;-72
2022/01/05 13:03:46;;;;;;;26.90;4.10;;;7.00;99.90;;;;;;5054840;28;20755;-72
2022/01/05 13:06:16;;;;;;;21.00;3.90;;;7.10;99.90;;;;;;5054469;28;20045;-72
2022/01/05 13:08:47;;;;;;;24.60;3.72;;;7.10;99.90;;;;;;5054898;28;20045;-72